Boutte, LA (70039)

10:50 AM CST on November 24, 2014 (GMT -0600)
Kirk Street | Change Station
CLOSE
Current Station
Personal Weather Station
Location: Paradis, LA
Elevation: 10 ft
Nearby Weather Stations

Elev 10 ft 29.88 °N, 90.43 °W | Updated 14 seconds ago

Mostly Cloudy
Mostly Cloudy
73.4 °F
Feels Like 75 °F
N
10.4
Wind Variable Wind from NNW
Gusts 10.4 mph

Today
High -- | Low -- °F
--% Chance of Precip.
Yesterday
High -- | Low -- °F
Precip. -- in
6:33 AM 5:02 PM
Waxing Crescent, 6% visible
Pressure 29.91 in
Visibility 10.0 miles
Clouds Few 1500 ft
Mostly Cloudy 25000 ft
Heat Index 75 °F
Dew Point 64 °F
Humidity 73%
Rainfall 0.00 in
Snow Depth Not available.
UV 2 out of 12
Pollen 4.20 out of 12
Air Quality Not available.
Flu Activity Not available.
METAR KMSY 241553Z 32012G20KT 10SM FEW015 BKN250 20/14 A2989 RMK AO2 SLP126 T02000139

More Conditions Fewer Conditions

Pressure 29.91 in
Visibility 10.0 miles
Clouds Few 1500 ft
Mostly Cloudy 25000 ft
Heat Index 75 °F
Dew Point 64 °F
Humidity 73%
Rainfall 0.00 in
Snow Depth Not available.
UV 2 out of 12
Pollen 4.20 out of 12
Air Quality Not available.
Flu Activity Not available.
METAR KMSY 241553Z 32012G20KT 10SM FEW015 BKN250 20/14 A2989 RMK AO2 SLP126 T02000139

More Conditions Fewer Conditions

10-Day Weather Forecast

Almanac

Astronomy

Nov. 24, 2014 Rise Set
Actual Time
Civil Twilight
Nautical Twilight
Astronomical Twilight
Moon
Length of Visible Light
Length of Day
Tomorrow will be .
, % of the Moon is Illuminated

Today's Extremes

State Highs State Lows

Community

WunderPhotos

Upload Photos

1,773,369 photos uploaded!

WunderBlogs® & News

Nearby

Air Quality

  Air Quality AQ Index Pollutant
Not available.

Snow Depth

Station Depth Elevation

Earthquake Activity

City Distance Mag. Time & Date
Minimum magnitude displayed is 2.5.

Coastal Water Temperatures

Place Temperature

Nearby Weather Stations